首页
METAR-TAF:

METAR-TAF

机场 :

Bemidji, 明尼蘇達州, 美国

纬度: 47-30N, 经度: 094-56W, 海拔: 423米

当前天气观测

该预报发布于13分钟前的02:56 UTC
风速8节,风向东南
温度 18°C
湿度 52%
气压 1017 hPa
能見度: 16.1公里
天空无云

METAR: KBJI 010256Z AUTO 13008KT 10SM CLR 18/08 A3002 RMK AO2 T01750075

时间: 22:09 (03:09 UTC)

预报

该预报发布于3小时和45分钟前的23:24 UTC
预报有效从01日的 00点(UTC)到 01日的 24点(UTC)
风速6节,风向南转西南
能見度: 10公里
天空无云
从 01日的 1200点(UTC)
风速9节,风向南转南东
能見度: 10公里
阴天层高于2500英尺
从 01日的 1400点(UTC)
风速8节,风向南转南东
能見度: 10公里
多云层高于1500英尺
从 01日的 1700点(UTC)
风速8节,风向南转西南
能見度: 10公里
散云层高于2000英尺

TAF: KBJI 312324Z 0100/0124 20006KT P6SM SKC FM011200 16009KT P6SM OVC025 FM011400 16008KT P6SM BKN015 FM011700 20008KT P6SM SCT020

超过4000个机场的气象观测和天气预报(METAR&TAF报告)。

可查询的气象台以黄色和红色小点在地图上表示。

将鼠标移到小点上方,可查看气象台名称。

然后点击查看天气观测和预报。

如需切换地图:点击带黑十字的绿色按钮放大地图;点击带横线的绿色按钮缩小地图;或者点击绿色箭头查看邻近地区的地图。


METAR-TAF: